sensor_id;sensor_type;location;lat;lon;timestamp;pressure;altitude;pressure_sealevel;temperature;humidity
37132;BME280;23035;50.032;21.978;2023-09-19T00:03:56;67188.84;;;19.12;100.00
37132;BME280;23035;50.032;21.978;2023-09-19T00:09:01;67167.75;;;18.90;100.00
37132;BME280;23035;50.032;21.978;2023-09-19T00:14:07;67156.97;;;18.80;100.00
37132;BME280;23035;50.032;21.978;2023-09-19T00:19:11;67172.06;;;18.94;100.00
37132;BME280;23035;50.032;21.978;2023-09-19T00:24:17;67212.59;;;19.35;100.00
37132;BME280;23035;50.032;21.978;2023-09-19T00:29:22;67200.63;;;19.18;100.00
37132;BME280;23035;50.032;21.978;2023-09-19T00:34:27;67223.88;;;19.43;100.00
37132;BME280;23035;50.032;21.978;2023-09-19T00:39:31;67207.16;;;19.27;100.00
37132;BME280;23035;50.032;21.978;2023-09-19T00:44:36;67215.84;;;19.38;100.00
37132;BME280;23035;50.032;21.978;2023-09-19T00:49:41;67191.06;;;19.17;100.00
37132;BME280;23035;50.032;21.978;2023-09-19T00:54:46;67242.81;;;19.61;100.00
37132;BME280;23035;50.032;21.978;2023-09-19T00:59:53;67291.41;;;20.07;100.00
37132;BME280;23035;50.032;21.978;2023-09-19T01:04:58;67261.22;;;19.81;100.00
37132;BME280;23035;50.032;21.978;2023-09-19T01:10:04;67285.53;;;20.03;100.00
37132;BME280;23035;50.032;21.978;2023-09-19T01:15:21;67302.34;;;20.22;100.00
37132;BME280;23035;50.032;21.978;2023-09-19T01:20:33;67381.16;;;20.94;100.00
37132;BME280;23035;50.032;21.978;2023-09-19T01:25:54;67336.88;;;20.52;100.00
37132;BME280;23035;50.032;21.978;2023-09-19T01:31:06;67369.34;;;20.85;100.00
37132;BME280;23035;50.032;21.978;2023-09-19T01:36:13;67386.59;;;20.99;100.00
37132;BME280;23035;50.032;21.978;2023-09-19T01:41:26;67322.22;;;20.36;100.00
37132;BME280;23035;50.032;21.978;2023-09-19T01:46:39;67343.94;;;20.61;100.00
37132;BME280;23035;50.032;21.978;2023-09-19T01:51:51;67243.88;;;19.62;100.00
37132;BME280;23035;50.032;21.978;2023-09-19T01:57:00;67283.97;;;20.04;100.00
37132;BME280;23035;50.032;21.978;2023-09-19T02:02:10;67358.41;;;20.70;100.00
37132;BME280;23035;50.032;21.978;2023-09-19T02:07:16;67373.19;;;20.91;100.00
37132;BME280;23035;50.032;21.978;2023-09-19T02:12:20;67374.09;;;20.84;100.00
37132;BME280;23035;50.032;21.978;2023-09-19T02:17:26;67376.91;;;20.92;100.00
37132;BME280;23035;50.032;21.978;2023-09-19T02:22:30;67281.16;;;19.97;100.00
37132;BME280;23035;50.032;21.978;2023-09-19T02:27:34;67267.28;;;19.91;100.00
37132;BME280;23035;50.032;21.978;2023-09-19T02:32:41;67261.16;;;19.78;100.00
37132;BME280;23035;50.032;21.978;2023-09-19T02:37:45;67215.84;;;19.38;100.00
37132;BME280;23035;50.032;21.978;2023-09-19T02:42:53;67321.88;;;20.43;100.00
37132;BME280;23035;50.032;21.978;2023-09-19T02:47:59;67335.84;;;20.53;100.00
37132;BME280;23035;50.032;21.978;2023-09-19T02:53:05;67391.88;;;20.99;100.00
37132;BME280;23035;50.032;21.978;2023-09-19T02:58:09;67412.47;;;21.20;100.00
37132;BME280;23035;50.032;21.978;2023-09-19T03:03:17;67442.81;;;21.52;100.00
37132;BME280;23035;50.032;21.978;2023-09-19T03:08:26;67459.59;;;21.67;100.00
37132;BME280;23035;50.032;21.978;2023-09-19T03:13:33;67435.81;;;21.45;100.00
37132;BME280;23035;50.032;21.978;2023-09-19T03:18:42;67456.41;;;21.67;100.00
37132;BME280;23035;50.032;21.978;2023-09-19T03:23:50;67454.72;;;21.63;100.00
37132;BME280;23035;50.032;21.978;2023-09-19T03:28:58;67465.94;;;21.68;100.00
37132;BME280;23035;50.032;21.978;2023-09-19T03:34:06;67447.16;;;21.56;100.00
37132;BME280;23035;50.032;21.978;2023-09-19T03:39:14;67367.13;;;20.80;100.00
37132;BME280;23035;50.032;21.978;2023-09-19T03:44:22;67200.19;;;19.23;100.00
37132;BME280;23035;50.032;21.978;2023-09-19T03:49:30;67228.66;;;19.45;100.00
37132;BME280;23035;50.032;21.978;2023-09-19T03:54:38;67150.53;;;18.76;100.00
37132;BME280;23035;50.032;21.978;2023-09-19T03:59:48;67072.84;;;18.03;100.00
37132;BME280;23035;50.032;21.978;2023-09-19T04:05:00;67171.47;;;18.91;100.00
37132;BME280;23035;50.032;21.978;2023-09-19T04:10:09;67108.91;;;18.34;100.00
37132;BME280;23035;50.032;21.978;2023-09-19T04:15:16;67061.56;;;17.95;100.00
37132;BME280;23035;50.032;21.978;2023-09-19T04:20:25;67119.84;;;18.50;100.00
37132;BME280;23035;50.032;21.978;2023-09-19T04:25:33;67099.88;;;18.31;100.00
37132;BME280;23035;50.032;21.978;2023-09-19T04:30:39;67081.00;;;18.13;100.00
37132;BME280;23035;50.032;21.978;2023-09-19T04:35:49;67140.28;;;18.67;100.00
37132;BME280;23035;50.032;21.978;2023-09-19T04:40:57;67098.72;;;18.27;100.00
37132;BME280;23035;50.032;21.978;2023-09-19T04:46:05;67155.88;;;18.79;100.00
37132;BME280;23035;50.032;21.978;2023-09-19T04:51:14;67220.72;;;19.42;100.00
37132;BME280;23035;50.032;21.978;2023-09-19T04:56:21;67235.75;;;19.54;100.00
37132;BME280;23035;50.032;21.978;2023-09-19T05:01:30;67253.66;;;19.73;100.00
37132;BME280;23035;50.032;21.978;2023-09-19T05:06:40;67236.41;;;19.57;100.00
37132;BME280;23035;50.032;21.978;2023-09-19T05:11:51;67244.56;;;19.67;100.00
37132;BME280;23035;50.032;21.978;2023-09-19T05:16:58;67222.88;;;19.44;100.00
37132;BME280;23035;50.032;21.978;2023-09-19T05:22:07;67254.28;;;19.76;100.00
37132;BME280;23035;50.032;21.978;2023-09-19T05:27:14;67229.34;;;19.51;100.00
37132;BME280;23035;50.032;21.978;2023-09-19T05:32:23;67249.88;;;19.70;100.00
37132;BME280;23035;50.032;21.978;2023-09-19T05:37:31;67249.34;;;19.69;100.00
37132;BME280;23035;50.032;21.978;2023-09-19T05:42:38;67242.91;;;19.66;100.00
37132;BME280;23035;50.032;21.978;2023-09-19T05:47:46;67252.09;;;19.74;100.00
37132;BME280;23035;50.032;21.978;2023-09-19T05:52:55;67221.31;;;19.45;100.00
37132;BME280;23035;50.032;21.978;2023-09-19T05:58:03;67213.63;;;19.33;100.00
37132;BME280;23035;50.032;21.978;2023-09-19T06:03:10;67264.53;;;19.86;100.00
37132;BME280;23035;50.032;21.978;2023-09-19T06:08:21;67220.78;;;19.45;100.00
37132;BME280;23035;50.032;21.978;2023-09-19T06:13:31;67208.28;;;19.31;100.00
37132;BME280;23035;50.032;21.978;2023-09-19T06:18:39;67246.56;;;19.64;100.00
37132;BME280;23035;50.032;21.978;2023-09-19T06:23:49;67253.19;;;19.75;100.00
37132;BME280;23035;50.032;21.978;2023-09-19T06:28:55;67221.94;;;19.48;100.00
37132;BME280;23035;50.032;21.978;2023-09-19T06:34:01;67235.31;;;19.56;100.00
37132;BME280;23035;50.032;21.978;2023-09-19T06:39:10;67244.03;;;19.67;100.00
37132;BME280;23035;50.032;21.978;2023-09-19T06:44:17;67239.69;;;19.63;100.00
37132;BME280;23035;50.032;21.978;2023-09-19T06:49:23;67297.94;;;20.15;100.00
37132;BME280;23035;50.032;21.978;2023-09-19T06:54:32;67300.03;;;20.15;100.00
37132;BME280;23035;50.032;21.978;2023-09-19T06:59:41;67282.34;;;20.03;100.00
37132;BME280;23035;50.032;21.978;2023-09-19T07:04:50;67308.81;;;20.28;100.00
37132;BME280;23035;50.032;21.978;2023-09-19T07:09:59;67320.03;;;20.33;100.00
37132;BME280;23035;50.032;21.978;2023-09-19T07:15:07;67337.34;;;20.50;100.00
37132;BME280;23035;50.032;21.978;2023-09-19T07:20:14;67338.56;;;20.56;100.00
37132;BME280;23035;50.032;21.978;2023-09-19T07:25:24;67382.28;;;20.95;100.00
37132;BME280;23035;50.032;21.978;2023-09-19T07:30:31;67434.25;;;21.46;100.00
37132;BME280;23035;50.032;21.978;2023-09-19T07:35:39;67324.91;;;20.38;100.00
37132;BME280;23035;50.032;21.978;2023-09-19T07:40:48;67372.47;;;20.83;100.00
37132;BME280;23035;50.032;21.978;2023-09-19T07:45:57;67383.47;;;21.01;100.00
37132;BME280;23035;50.032;21.978;2023-09-19T07:51:06;67360.09;;;20.74;100.00
37132;BME280;23035;50.032;21.978;2023-09-19T07:56:15;67357.34;;;20.69;100.00
37132;BME280;23035;50.032;21.978;2023-09-19T08:01:23;67341.75;;;20.56;100.00
37132;BME280;23035;50.032;21.978;2023-09-19T08:06:32;67314.16;;;20.30;100.00
37132;BME280;23035;50.032;21.978;2023-09-19T08:11:42;67314.69;;;20.31;100.00
37132;BME280;23035;50.032;21.978;2023-09-19T08:16:51;67288.78;;;20.07;100.00
37132;BME280;23035;50.032;21.978;2023-09-19T08:22:03;67295.19;;;20.10;100.00
37132;BME280;23035;50.032;21.978;2023-09-19T08:27:12;67319.63;;;20.38;100.00
37132;BME280;23035;50.032;21.978;2023-09-19T08:32:19;67330.25;;;20.41;100.00
37132;BME280;23035;50.032;21.978;2023-09-19T08:37:30;67287.75;;;20.08;100.00
37132;BME280;23035;50.032;21.978;2023-09-19T08:42:53;67279.13;;;20.00;100.00
37132;BME280;23035;50.032;21.978;2023-09-19T08:48:20;67287.28;;;20.10;100.00
37132;BME280;23035;50.032;21.978;2023-09-19T08:53:36;67171.13;;;18.98;100.00
37132;BME280;23035;50.032;21.978;2023-09-19T08:58:55;67220.22;;;19.44;100.00
37132;BME280;23035;50.032;21.978;2023-09-19T09:04:07;67234.84;;;19.58;100.00
37132;BME280;23035;50.032;21.978;2023-09-19T09:09:18;67285.03;;;20.05;100.00
37132;BME280;23035;50.032;21.978;2023-09-19T09:14:29;67237.59;;;19.63;100.00
37132;BME280;23035;50.032;21.978;2023-09-19T09:19:36;67279.06;;;19.97;100.00
37132;BME280;23035;50.032;21.978;2023-09-19T09:24:52;67263.97;;;19.86;100.00
37132;BME280;23035;50.032;21.978;2023-09-19T09:30:02;67303.91;;;20.21;100.00
37132;BME280;23035;50.032;21.978;2023-09-19T09:35:10;67251.56;;;19.74;100.00
37132;BME280;23035;50.032;21.978;2023-09-19T09:40:20;67248.38;;;19.73;100.00
37132;BME280;23035;50.032;21.978;2023-09-19T09:45:42;67212.69;;;19.37;100.00
37132;BME280;23035;50.032;21.978;2023-09-19T09:50:54;67254.75;;;19.74;100.00
37132;BME280;23035;50.032;21.978;2023-09-19T09:56:02;67217.53;;;19.42;100.00
37132;BME280;23035;50.032;21.978;2023-09-19T10:01:12;67208.34;;;19.33;100.00
37132;BME280;23035;50.032;21.978;2023-09-19T10:06:19;67166.78;;;18.94;100.00
37132;BME280;23035;50.032;21.978;2023-09-19T10:11:40;67175.84;;;18.98;100.00
37132;BME280;23035;50.032;21.978;2023-09-19T10:16:48;67062.00;;;17.90;100.00
37132;BME280;23035;50.032;21.978;2023-09-19T10:21:54;67057.81;;;17.91;100.00
37132;BME280;23035;50.032;21.978;2023-09-19T10:27:01;67026.97;;;17.60;100.00
37132;BME280;23035;50.032;21.978;2023-09-19T10:32:14;67061.50;;;17.92;100.00
37132;BME280;23035;50.032;21.978;2023-09-19T10:37:27;67012.97;;;17.46;100.00
37132;BME280;23035;50.032;21.978;2023-09-19T10:42:41;67018.97;;;17.55;100.00
37132;BME280;23035;50.032;21.978;2023-09-19T10:47:51;66948.28;;;16.85;100.00
37132;BME280;23035;50.032;21.978;2023-09-19T10:53:01;67003.78;;;17.38;100.00
37132;BME280;23035;50.032;21.978;2023-09-19T10:58:31;67003.25;;;17.37;100.00
37132;BME280;23035;50.032;21.978;2023-09-19T11:03:45;67043.25;;;17.77;100.00
37132;BME280;23035;50.032;21.978;2023-09-19T11:09:02;67082.47;;;18.10;100.00
37132;BME280;23035;50.032;21.978;2023-09-19T11:14:40;67105.75;;;18.34;100.00
37132;BME280;23035;50.032;21.978;2023-09-19T11:20:26;67098.81;;;18.30;100.00
37132;BME280;23035;50.032;21.978;2023-09-19T11:25:45;67032.97;;;17.68;100.00
37132;BME280;23035;50.032;21.978;2023-09-19T11:30:54;67056.19;;;17.90;100.00
37132;BME280;23035;50.032;21.978;2023-09-19T11:36:06;67056.72;;;17.90;100.00
37132;BME280;23035;50.032;21.978;2023-09-19T11:41:36;67084.69;;;18.14;100.00
37132;BME280;23035;50.032;21.978;2023-09-19T11:46:54;67011.88;;;17.45;100.00
37132;BME280;23035;50.032;21.978;2023-09-19T11:52:06;67015.72;;;17.52;100.00
37132;BME280;23035;50.032;21.978;2023-09-19T11:57:20;67034.59;;;17.69;100.00
37132;BME280;23035;50.032;21.978;2023-09-19T12:02:37;67050.09;;;17.79;100.00
37132;BME280;23035;50.032;21.978;2023-09-19T12:07:47;67018.34;;;17.52;100.00
37132;BME280;23035;50.032;21.978;2023-09-19T12:12:55;67006.16;;;17.47;100.00
37132;BME280;23035;50.032;21.978;2023-09-19T12:18:04;67017.88;;;17.54;100.00
37132;BME280;23035;50.032;21.978;2023-09-19T12:23:14;67039.94;;;17.72;100.00
37132;BME280;23035;50.032;21.978;2023-09-19T12:28:21;67001.69;;;17.38;100.00
37132;BME280;23035;50.032;21.978;2023-09-19T12:33:32;66963.97;;;17.03;100.00
37132;BME280;23035;50.032;21.978;2023-09-19T12:38:48;66942.88;;;16.80;100.00
37132;BME280;23035;50.032;21.978;2023-09-19T12:43:55;66939.81;;;16.82;100.00
37132;BME280;23035;50.032;21.978;2023-09-19T12:49:17;66924.63;;;16.66;100.00
37132;BME280;23035;50.032;21.978;2023-09-19T12:54:24;66978.00;;;17.16;100.00
37132;BME280;23035;50.032;21.978;2023-09-19T12:59:32;66938.09;;;16.78;100.00
37132;BME280;23035;50.032;21.978;2023-09-19T13:04:52;66923.41;;;16.59;100.00
37132;BME280;23035;50.032;21.978;2023-09-19T13:10:07;66917.06;;;16.58;100.00
37132;BME280;23035;50.032;21.978;2023-09-19T13:15:15;66912.69;;;16.52;100.00
37132;BME280;23035;50.032;21.978;2023-09-19T13:20:25;66912.69;;;16.52;100.00
37132;BME280;23035;50.032;21.978;2023-09-19T13:25:33;66927.78;;;16.66;100.00
37132;BME280;23035;50.032;21.978;2023-09-19T13:30:41;66924.03;;;16.62;100.00
37132;BME280;23035;50.032;21.978;2023-09-19T13:35:49;66910.09;;;16.52;100.00
37132;BME280;23035;50.032;21.978;2023-09-19T13:40:56;66935.34;;;16.73;100.00
37132;BME280;23035;50.032;21.978;2023-09-19T13:46:00;66927.19;;;16.63;100.00
37132;BME280;23035;50.032;21.978;2023-09-19T13:51:05;66986.00;;;17.21;100.00
37132;BME280;23035;50.032;21.978;2023-09-19T13:56:11;66962.44;;;17.04;100.00
37132;BME280;23035;50.032;21.978;2023-09-19T14:01:16;66986.00;;;17.21;100.00
37132;BME280;23035;50.032;21.978;2023-09-19T14:06:21;66906.84;;;16.49;100.00
37132;BME280;23035;50.032;21.978;2023-09-19T14:11:27;66986.63;;;17.24;100.00
37132;BME280;23035;50.032;21.978;2023-09-19T14:16:31;66978.53;;;17.16;100.00
37132;BME280;23035;50.032;21.978;2023-09-19T14:21:36;66997.88;;;17.32;100.00
37132;BME280;23035;50.032;21.978;2023-09-19T14:26:44;66978.00;;;17.16;100.00
37132;BME280;23035;50.032;21.978;2023-09-19T14:31:50;67004.81;;;17.36;100.00
37132;BME280;23035;50.032;21.978;2023-09-19T14:36:57;66988.16;;;17.23;100.00
37132;BME280;23035;50.032;21.978;2023-09-19T14:42:03;66990.53;;;17.33;100.00
37132;BME280;23035;50.032;21.978;2023-09-19T14:47:09;66989.84;;;17.27;100.00
37132;BME280;23035;50.032;21.978;2023-09-19T14:52:16;66993.53;;;17.28;100.00
37132;BME280;23035;50.032;21.978;2023-09-19T14:57:23;66942.50;;;16.85;100.00
37132;BME280;23035;50.032;21.978;2023-09-19T15:02:29;66972.13;;;17.13;100.00
37132;BME280;23035;50.032;21.978;2023-09-19T15:07:35;67014.66;;;17.51;100.00
37132;BME280;23035;50.032;21.978;2023-09-19T15:12:41;66979.66;;;17.20;100.00
37132;BME280;23035;50.032;21.978;2023-09-19T15:17:45;66967.63;;;17.01;100.00
37132;BME280;23035;50.032;21.978;2023-09-19T15:22:49;66978.47;;;17.14;100.00
37132;BME280;23035;50.032;21.978;2023-09-19T15:27:55;67021.13;;;17.57;100.00
37132;BME280;23035;50.032;21.978;2023-09-19T15:33:01;66950.44;;;16.87;100.00
37132;BME280;23035;50.032;21.978;2023-09-19T15:38:06;66936.97;;;16.75;100.00
37132;BME280;23035;50.032;21.978;2023-09-19T15:43:12;66960.19;;;16.99;100.00
37132;BME280;23035;50.032;21.978;2023-09-19T15:48:17;66969.78;;;17.03;100.00
37132;BME280;23035;50.032;21.978;2023-09-19T15:53:24;66991.94;;;17.27;100.00
37132;BME280;23035;50.032;21.978;2023-09-19T15:58:32;67018.91;;;17.52;100.00
37132;BME280;23035;50.032;21.978;2023-09-19T16:03:36;67014.03;;;17.47;100.00
37132;BME280;23035;50.032;21.978;2023-09-19T16:08:41;67032.97;;;17.68;100.00
37132;BME280;23035;50.032;21.978;2023-09-19T16:13:50;66966.75;;;17.08;100.00
37132;BME280;23035;50.032;21.978;2023-09-19T16:18:56;66938.56;;;16.76;100.00
37132;BME280;23035;50.032;21.978;2023-09-19T16:24:05;66960.66;;;16.97;100.00
37132;BME280;23035;50.032;21.978;2023-09-19T16:29:14;66934.34;;;16.75;100.00
37132;BME280;23035;50.032;21.978;2023-09-19T16:34:18;66923.00;;;16.64;100.00
37132;BME280;23035;50.032;21.978;2023-09-19T16:39:26;66904.69;;;16.47;100.00
37132;BME280;23035;50.032;21.978;2023-09-19T16:44:34;66933.19;;;16.71;100.00
37132;BME280;23035;50.032;21.978;2023-09-19T16:49:40;66913.44;;;16.60;100.00
37132;BME280;23035;50.032;21.978;2023-09-19T16:54:46;66905.28;;;16.50;100.00
37132;BME280;23035;50.032;21.978;2023-09-19T16:59:52;66921.41;;;16.62;100.00
37132;BME280;23035;50.032;21.978;2023-09-19T17:04:56;66903.59;;;16.46;100.00
37132;BME280;23035;50.032;21.978;2023-09-19T17:09:59;66930.56;;;16.71;100.00
37132;BME280;23035;50.032;21.978;2023-09-19T17:15:06;66927.19;;;16.63;100.00
37132;BME280;23035;50.032;21.978;2023-09-19T17:20:12;66953.13;;;16.90;100.00
37132;BME280;23035;50.032;21.978;2023-09-19T17:25:17;66916.41;;;16.53;100.00
37132;BME280;23035;50.032;21.978;2023-09-19T17:30:22;66925.16;;;16.66;100.00
37132;BME280;23035;50.032;21.978;2023-09-19T17:35:26;66936.97;;;16.75;100.00
37132;BME280;23035;50.032;21.978;2023-09-19T17:40:38;66923.53;;;16.64;100.00
37132;BME280;23035;50.032;21.978;2023-09-19T17:45:43;66906.38;;;16.51;100.00
37132;BME280;23035;50.032;21.978;2023-09-19T17:50:57;66891.69;;;16.32;100.00
37132;BME280;23035;50.032;21.978;2023-09-19T17:56:01;66897.22;;;16.42;100.00
37132;BME280;23035;50.032;21.978;2023-09-19T18:01:09;66904.69;;;16.47;100.00
37132;BME280;23035;50.032;21.978;2023-09-19T18:06:16;66872.38;;;16.16;100.00
37132;BME280;23035;50.032;21.978;2023-09-19T18:11:21;66859.44;;;16.04;100.00
37132;BME280;23035;50.032;21.978;2023-09-19T18:16:30;66869.53;;;16.09;100.00
37132;BME280;23035;50.032;21.978;2023-09-19T18:21:34;66858.91;;;16.03;100.00
37132;BME280;23035;50.032;21.978;2023-09-19T18:26:39;66847.44;;;15.88;100.00
37132;BME280;23035;50.032;21.978;2023-09-19T18:31:47;66877.06;;;16.16;100.00
37132;BME280;23035;50.032;21.978;2023-09-19T18:36:52;66860.53;;;16.05;100.00
37132;BME280;23035;50.032;21.978;2023-09-19T18:41:57;66858.81;;;16.01;100.00
37132;BME280;23035;50.032;21.978;2023-09-19T18:47:05;66865.44;;;16.12;100.00
37132;BME280;23035;50.032;21.978;2023-09-19T18:52:09;66875.59;;;16.19;100.00
37132;BME280;23035;50.032;21.978;2023-09-19T18:57:13;66864.81;;;16.09;100.00
37132;BME280;23035;50.032;21.978;2023-09-19T19:02:19;66887.97;;;16.31;100.00
37132;BME280;23035;50.032;21.978;2023-09-19T19:07:25;66856.66;;;15.99;100.00
37132;BME280;23035;50.032;21.978;2023-09-19T19:12:30;66871.84;;;16.16;100.00
37132;BME280;23035;50.032;21.978;2023-09-19T19:17:38;66891.75;;;16.34;100.00
37132;BME280;23035;50.032;21.978;2023-09-19T19:22:43;66898.91;;;16.46;100.00
37132;BME280;23035;50.032;21.978;2023-09-19T19:27:47;66915.00;;;16.59;100.00
37132;BME280;23035;50.032;21.978;2023-09-19T19:32:54;66925.63;;;16.64;100.00
37132;BME280;23035;50.032;21.978;2023-09-19T19:37:59;66928.25;;;16.64;100.00
37132;BME280;23035;50.032;21.978;2023-09-19T19:43:03;66946.72;;;16.86;100.00
37132;BME280;23035;50.032;21.978;2023-09-19T19:48:09;66900.84;;;16.41;100.00
37132;BME280;23035;50.032;21.978;2023-09-19T19:53:13;66914.44;;;16.58;100.00
37132;BME280;23035;50.032;21.978;2023-09-19T19:58:17;66869.16;;;16.13;100.00
37132;BME280;23035;50.032;21.978;2023-09-19T20:03:26;66911.59;;;16.51;100.00
37132;BME280;23035;50.032;21.978;2023-09-19T20:08:30;66909.47;;;16.49;100.00
37132;BME280;23035;50.032;21.978;2023-09-19T20:13:34;66908.44;;;16.50;100.00
37132;BME280;23035;50.032;21.978;2023-09-19T20:18:44;66893.38;;;16.36;100.00
37132;BME280;23035;50.032;21.978;2023-09-19T20:23:49;66953.66;;;16.90;100.00
37132;BME280;23035;50.032;21.978;2023-09-19T20:28:55;67004.31;;;17.38;100.00
37132;BME280;23035;50.032;21.978;2023-09-19T20:34:00;67023.34;;;17.61;100.00
37132;BME280;23035;50.032;21.978;2023-09-19T20:39:04;66960.72;;;17.00;100.00
37132;BME280;23035;50.032;21.978;2023-09-19T20:44:08;66964.44;;;17.01;100.00
37132;BME280;23035;50.032;21.978;2023-09-19T20:49:14;66929.03;;;16.72;100.00
37132;BME280;23035;50.032;21.978;2023-09-19T20:54:18;66979.59;;;17.17;100.00
37132;BME280;23035;50.032;21.978;2023-09-19T20:59:23;67009.31;;;17.48;100.00
37132;BME280;23035;50.032;21.978;2023-09-19T21:04:29;66975.38;;;17.16;100.00
37132;BME280;23035;50.032;21.978;2023-09-19T21:09:33;66991.41;;;17.26;100.00
37132;BME280;23035;50.032;21.978;2023-09-19T21:14:39;66928.41;;;16.69;100.00
37132;BME280;23035;50.032;21.978;2023-09-19T21:19:46;66969.84;;;17.06;100.00
37132;BME280;23035;50.032;21.978;2023-09-19T21:24:50;67028.66;;;17.64;100.00
37132;BME280;23035;50.032;21.978;2023-09-19T21:29:56;66896.66;;;16.42;100.00
37132;BME280;23035;50.032;21.978;2023-09-19T21:35:01;66983.38;;;17.21;100.00
37132;BME280;23035;50.032;21.978;2023-09-19T21:40:08;66890.16;;;16.33;100.00
37132;BME280;23035;50.032;21.978;2023-09-19T21:45:12;66901.31;;;16.39;100.00
37132;BME280;23035;50.032;21.978;2023-09-19T21:50:18;66941.34;;;16.81;100.00
37132;BME280;23035;50.032;21.978;2023-09-19T21:55:24;66906.31;;;16.48;100.00
37132;BME280;23035;50.032;21.978;2023-09-19T22:00:29;66958.59;;;16.98;100.00
37132;BME280;23035;50.032;21.978;2023-09-19T22:05:41;66953.22;;;16.92;100.00
37132;BME280;23035;50.032;21.978;2023-09-19T22:10:46;66914.91;;;16.56;100.00
37132;BME280;23035;50.032;21.978;2023-09-19T22:15:54;66913.84;;;16.55;100.00
37132;BME280;23035;50.032;21.978;2023-09-19T22:21:00;67000.56;;;17.35;100.00
37132;BME280;23035;50.032;21.978;2023-09-19T22:26:09;66961.28;;;17.00;100.00
37132;BME280;23035;50.032;21.978;2023-09-19T22:31:16;66980.13;;;17.18;100.00
37132;BME280;23035;50.032;21.978;2023-09-19T22:36:26;66942.50;;;16.85;100.00
37132;BME280;23035;50.032;21.978;2023-09-19T22:41:34;66965.06;;;17.04;100.00
37132;BME280;23035;50.032;21.978;2023-09-19T22:46:41;66951.03;;;16.90;100.00
37132;BME280;23035;50.032;21.978;2023-09-19T22:51:47;66902.00;;;16.44;100.00
37132;BME280;23035;50.032;21.978;2023-09-19T22:56:55;66906.31;;;16.48;100.00
37132;BME280;23035;50.032;21.978;2023-09-19T23:02:01;66980.69;;;17.18;100.00
37132;BME280;23035;50.032;21.978;2023-09-19T23:07:09;66976.91;;;17.15;100.00
37132;BME280;23035;50.032;21.978;2023-09-19T23:12:14;66949.97;;;16.89;100.00
37132;BME280;23035;50.032;21.978;2023-09-19T23:17:22;66908.53;;;16.53;100.00
37132;BME280;23035;50.032;21.978;2023-09-19T23:22:27;66921.47;;;16.65;100.00
37132;BME280;23035;50.032;21.978;2023-09-19T23:27:31;66857.81;;;16.02;100.00
37132;BME280;23035;50.032;21.978;2023-09-19T23:32:38;66863.28;;;16.10;100.00
37132;BME280;23035;50.032;21.978;2023-09-19T23:37:43;66829.91;;;15.78;100.00
37132;BME280;23035;50.032;21.978;2023-09-19T23:42:48;66856.06;;;15.96;100.00
37132;BME280;23035;50.032;21.978;2023-09-19T23:47:53;66858.28;;;16.00;100.00
37132;BME280;23035;50.032;21.978;2023-09-19T23:52:58;66827.13;;;15.73;100.00
37132;BME280;23035;50.032;21.978;2023-09-19T23:58:06;66850.66;;;15.91;100.00
